createdAt,value
2018-02-09T00:02:06.640Z,78.90
2018-02-09T00:04:34.174Z,78.30
2018-02-09T00:07:02.497Z,78.30
2018-02-09T00:09:30.048Z,78.30
2018-02-09T00:11:57.578Z,78.30
2018-02-09T00:14:25.131Z,78.40
2018-02-09T00:16:52.662Z,78.70
2018-02-09T00:19:20.214Z,78.40
2018-02-09T00:21:47.743Z,76.60
2018-02-09T00:24:15.309Z,79.00
2018-02-09T00:26:42.842Z,79.00
2018-02-09T00:29:10.402Z,79.30
2018-02-09T00:31:37.930Z,78.70
2018-02-09T00:34:05.462Z,78.00
2018-02-09T00:36:33.009Z,78.50
2018-02-09T00:39:01.534Z,78.00
2018-02-09T00:41:29.863Z,76.60
2018-02-09T00:43:57.398Z,76.60
2018-02-09T00:46:24.986Z,77.60
2018-02-09T00:48:52.516Z,77.60
2018-02-09T00:51:20.068Z,77.40
2018-02-09T00:53:47.599Z,77.80
2018-02-09T00:56:15.164Z,77.60
2018-02-09T00:58:42.739Z,77.90
2018-02-09T01:01:10.279Z,78.00
2018-02-09T01:03:37.868Z,78.10
2018-02-09T01:06:05.411Z,79.00
2018-02-09T01:08:33.738Z,78.40
2018-02-09T01:11:01.275Z,78.30
2018-02-09T01:13:28.856Z,77.80
2018-02-09T01:15:56.420Z,78.20
2018-02-09T01:18:23.982Z,75.70
2018-02-09T01:20:51.513Z,74.80
2018-02-09T01:23:20.004Z,75.20
2018-02-09T01:25:47.564Z,75.50
2018-02-09T01:28:15.094Z,74.00
2018-02-09T01:30:43.410Z,75.90
2018-02-09T01:33:10.947Z,76.00
2018-02-09T01:35:38.520Z,75.90
2018-02-09T01:38:06.048Z,76.10
2018-02-09T01:40:33.615Z,77.10
2018-02-09T01:43:01.149Z,77.60
2018-02-09T01:45:29.478Z,76.70
2018-02-09T01:47:57.006Z,76.70
2018-02-09T01:50:24.538Z,76.90
2018-02-09T01:52:52.110Z,77.10
2018-02-09T01:55:27.061Z,77.80
2018-02-09T01:57:55.539Z,77.80
2018-02-09T02:00:24.115Z,76.70
2018-02-09T02:02:51.645Z,77.70
2018-02-09T02:05:19.972Z,76.60
2018-02-09T02:07:47.503Z,76.50
2018-02-09T02:10:15.043Z,77.30
2018-02-09T02:12:42.603Z,77.70
2018-02-09T02:15:10.125Z,77.20
2018-02-09T02:17:37.694Z,77.60
2018-02-09T02:20:06.908Z,77.00
2018-02-09T02:22:35.409Z,76.90
2018-02-09T02:25:03.918Z,75.60
2018-02-09T02:27:31.446Z,74.90
2018-02-09T02:29:59.008Z,75.10
2018-02-09T02:32:26.548Z,75.30
2018-02-09T02:34:54.069Z,75.50
2018-02-09T02:37:23.598Z,74.80
2018-02-09T02:39:52.126Z,74.00
2018-02-09T02:42:20.647Z,74.10
2018-02-09T02:44:48.182Z,74.90
2018-02-09T02:47:16.665Z,74.60
2018-02-09T02:49:44.218Z,75.30
2018-02-09T02:52:11.748Z,75.60
2018-02-09T02:54:40.072Z,75.80
2018-02-09T02:57:07.592Z,76.50
2018-02-09T02:59:35.125Z,76.60
2018-02-09T03:02:02.689Z,76.70
2018-02-09T03:04:31.203Z,76.00
2018-02-09T03:07:00.693Z,74.70
2018-02-09T03:09:28.986Z,73.90
2018-02-09T03:11:56.533Z,73.90
2018-02-09T03:14:26.068Z,73.70
2018-02-09T03:16:53.602Z,73.90
2018-02-09T03:19:22.124Z,74.40
2018-02-09T03:21:49.666Z,74.00
2018-02-09T03:24:17.202Z,74.40
2018-02-09T03:26:44.762Z,73.80
2018-02-09T03:29:12.308Z,74.80
2018-02-09T03:31:40.632Z,74.10
2018-02-09T03:34:08.167Z,74.10
2018-02-09T03:36:35.698Z,74.00
2018-02-09T03:39:04.218Z,74.20
2018-02-09T03:41:31.753Z,76.80
2018-02-09T03:43:59.519Z,77.00
2018-02-09T03:46:27.046Z,76.50
2018-02-09T03:48:54.588Z,77.30
2018-02-09T03:51:22.148Z,78.10
2018-02-09T03:53:49.692Z,77.70
2018-02-09T03:56:17.242Z,77.40
2018-02-09T03:58:44.770Z,78.20
2018-02-09T04:01:12.302Z,77.40
2018-02-09T04:03:41.611Z,78.00
2018-02-09T04:06:09.141Z,78.00
2018-02-09T04:08:36.717Z,77.30
2018-02-09T04:11:04.262Z,78.10
2018-02-09T04:13:32.754Z,77.40
2018-02-09T04:16:01.081Z,77.10
2018-02-09T04:18:28.618Z,77.20
2018-02-09T04:20:57.156Z,78.20
2018-02-09T04:23:25.648Z,77.20
2018-02-09T04:25:53.174Z,76.60
2018-02-09T04:28:20.734Z,76.70
2018-02-09T04:30:48.269Z,77.50
2018-02-09T04:33:15.830Z,76.20
2018-02-09T04:35:43.370Z,76.20
2018-02-09T04:38:10.922Z,75.10
2018-02-09T04:40:39.264Z,75.20
2018-02-09T04:43:06.794Z,75.20
2018-02-09T04:45:34.350Z,75.90
2018-02-09T04:48:01.874Z,76.10
2018-02-09T04:50:29.413Z,75.70
2018-02-09T04:52:56.973Z,75.30
2018-02-09T04:55:25.472Z,75.10
2018-02-09T04:57:53.020Z,75.50
2018-02-09T05:00:20.559Z,75.60
2018-02-09T05:02:48.103Z,75.10
2018-02-09T05:05:15.676Z,74.70
2018-02-09T05:07:43.218Z,75.10
2018-02-09T05:10:10.783Z,75.00
2018-02-09T05:12:38.343Z,74.70
2018-02-09T05:15:07.626Z,76.50
2018-02-09T05:17:35.198Z,77.10
2018-02-09T05:20:02.749Z,76.40
2018-02-09T05:22:30.313Z,75.70
2018-02-09T05:24:57.853Z,76.50
2018-02-09T05:27:26.339Z,76.60
2018-02-09T05:29:53.907Z,76.20
2018-02-09T05:32:22.558Z,75.60
2018-02-09T05:34:52.071Z,75.10
2018-02-09T05:37:19.603Z,75.20
2018-02-09T05:39:47.892Z,75.70
2018-02-09T05:42:15.454Z,75.70
2018-02-09T05:44:42.982Z,75.40
2018-02-09T05:47:10.543Z,75.10
2018-02-09T05:49:38.080Z,75.70
2018-02-09T05:52:06.584Z,75.70
2018-02-09T05:54:34.911Z,77.20
2018-02-09T05:57:02.439Z,76.50
2018-02-09T05:59:29.998Z,78.50
2018-02-09T06:01:58.311Z,77.10
2018-02-09T06:04:25.837Z,77.10
2018-02-09T06:06:54.172Z,76.80
2018-02-09T06:09:22.654Z,76.80
2018-02-09T06:11:52.129Z,76.50
2018-02-09T06:14:19.683Z,75.60
2018-02-09T06:16:47.211Z,75.30
2018-02-09T06:19:16.703Z,75.50
2018-02-09T06:21:44.222Z,75.90
2018-02-09T06:24:11.774Z,75.10
2018-02-09T06:26:39.306Z,74.40
2018-02-09T06:29:06.847Z,75.00
2018-02-09T06:31:34.410Z,75.40
2018-02-09T06:34:02.728Z,76.40
2018-02-09T06:36:30.309Z,76.40
2018-02-09T06:38:57.838Z,76.70
2018-02-09T06:41:25.360Z,76.30
2018-02-09T06:43:53.678Z,76.40
2018-02-09T06:46:21.206Z,76.40
2018-02-09T06:48:48.760Z,76.40
2018-02-09T06:51:17.061Z,75.50
2018-02-09T06:53:44.595Z,75.50
2018-02-09T06:56:12.154Z,75.60
2018-02-09T06:58:39.685Z,75.60
2018-02-09T07:01:07.210Z,75.10
2018-02-09T07:03:34.766Z,74.30
2018-02-09T07:06:04.021Z,74.90
2018-02-09T07:08:32.321Z,74.10
2018-02-09T07:10:59.898Z,74.20
2018-02-09T07:13:27.424Z,73.40
2018-02-09T07:15:54.970Z,73.60
2018-02-09T07:18:23.261Z,74.00
2018-02-09T07:20:50.791Z,73.90
2018-02-09T07:23:18.352Z,74.20
2018-02-09T07:25:45.881Z,73.30
2018-02-09T07:28:13.438Z,73.30
2018-02-09T07:30:40.982Z,73.40
2018-02-09T07:33:08.516Z,73.00
2018-02-09T07:35:36.073Z,72.30
2018-02-09T07:38:04.614Z,72.20
2018-02-09T07:40:32.178Z,71.70
2018-02-09T07:42:59.731Z,73.60
2018-02-09T07:45:27.270Z,74.00
2018-02-09T07:47:54.828Z,74.80
2018-02-09T07:50:22.361Z,75.80
2018-02-09T07:52:49.922Z,76.40
2018-02-09T07:55:17.466Z,76.60
2018-02-09T07:57:44.998Z,75.90
2018-02-09T08:00:12.552Z,76.40
2018-02-09T08:02:40.110Z,74.70
2018-02-09T08:05:09.643Z,74.40
2018-02-09T08:07:37.172Z,72.90
2018-02-09T08:10:06.406Z,74.40
2018-02-09T08:12:33.961Z,74.30
2018-02-09T08:15:01.507Z,74.10
2018-02-09T08:17:29.062Z,73.50
2018-02-09T08:19:56.594Z,72.60
2018-02-09T08:22:24.897Z,71.10
2018-02-09T08:24:52.441Z,71.10
2018-02-09T08:27:19.958Z,70.90
2018-02-09T08:29:47.511Z,69.40
2018-02-09T08:32:15.043Z,69.20
2018-02-09T08:34:42.575Z,68.80
2018-02-09T08:37:10.126Z,68.40
2018-02-09T08:39:37.652Z,69.50
2018-02-09T08:42:05.208Z,70.10
2018-02-09T08:44:32.734Z,71.80
2018-02-09T08:47:01.220Z,72.20
2018-02-09T08:49:28.766Z,70.40
2018-02-09T08:51:56.291Z,69.10
2018-02-09T08:54:23.840Z,68.10
2018-02-09T08:56:51.369Z,68.00
2018-02-09T08:59:18.911Z,69.80
2018-02-09T09:01:47.223Z,69.00
2018-02-09T09:04:14.746Z,69.00
2018-02-09T09:06:44.018Z,70.70
2018-02-09T09:09:12.642Z,70.70
2018-02-09T09:11:40.212Z,70.50
2018-02-09T09:14:09.717Z,70.30
2018-02-09T09:16:37.253Z,70.30
2018-02-09T09:19:04.810Z,70.40
2018-02-09T09:21:32.344Z,69.60
2018-02-09T09:23:59.870Z,70.40
2018-02-09T09:26:27.425Z,70.60
2018-02-09T09:28:55.930Z,70.10
2018-02-09T09:31:25.436Z,68.20
2018-02-09T09:33:52.962Z,68.10
2018-02-09T09:36:20.485Z,66.40
2018-02-09T09:38:48.809Z,68.40
2018-02-09T09:41:16.334Z,68.50
2018-02-09T09:43:43.882Z,66.40
2018-02-09T09:46:11.441Z,66.20
2018-02-09T09:48:39.736Z,69.50
2018-02-09T09:51:07.289Z,69.50
2018-02-09T09:53:34.819Z,68.90
2018-02-09T09:56:03.146Z,71.10
2018-02-09T09:58:30.674Z,71.10
2018-02-09T10:00:58.219Z,71.40
2018-02-09T10:03:25.766Z,72.70
2018-02-09T10:05:54.253Z,70.50
2018-02-09T10:08:22.582Z,69.90
2018-02-09T10:10:51.086Z,69.80
2018-02-09T10:13:18.620Z,69.20
2018-02-09T10:15:46.184Z,70.70
2018-02-09T10:18:13.711Z,71.50
2018-02-09T10:20:41.293Z,70.30
2018-02-09T10:23:08.825Z,69.20
2018-02-09T10:25:37.387Z,68.10
2018-02-09T10:28:05.687Z,67.00
2018-02-09T10:30:34.170Z,67.00
2018-02-09T10:33:01.731Z,67.30
2018-02-09T10:35:29.274Z,67.40
2018-02-09T10:37:56.826Z,66.70
2018-02-09T10:40:25.114Z,70.50
2018-02-09T10:42:52.651Z,70.40
2018-02-09T10:45:20.205Z,69.50
2018-02-09T10:47:47.735Z,70.60
2018-02-09T10:50:17.222Z,70.40
2018-02-09T10:52:47.598Z,69.60
2018-02-09T10:55:15.125Z,68.90
2018-02-09T10:57:42.673Z,69.20
2018-02-09T11:00:10.198Z,71.50
2018-02-09T11:02:37.748Z,72.80
2018-02-09T11:05:06.294Z,73.80
2018-02-09T11:07:33.818Z,74.10
2018-02-09T11:10:01.383Z,74.30
2018-02-09T11:12:34.593Z,71.00
2018-02-09T11:15:02.596Z,71.40
2018-02-09T11:17:31.118Z,71.00
2018-02-09T11:19:58.914Z,70.80
2018-02-09T11:22:26.450Z,71.40
2018-02-09T11:24:53.997Z,71.70
2018-02-09T11:27:24.790Z,72.80
2018-02-09T11:29:53.280Z,73.70
2018-02-09T11:32:20.860Z,71.80
2018-02-09T11:34:48.386Z,71.00
2018-02-09T11:37:15.922Z,71.10
2018-02-09T11:39:43.483Z,70.20
2018-02-09T11:42:11.017Z,69.80
2018-02-09T11:44:38.573Z,70.10
2018-02-09T11:47:07.096Z,71.60
2018-02-09T11:49:34.703Z,70.70
2018-02-09T11:52:02.276Z,70.00
2018-02-09T11:54:29.799Z,68.60
2018-02-09T11:56:57.358Z,68.00
2018-02-09T11:59:24.887Z,69.20
2018-02-09T12:01:53.121Z,68.40
2018-02-09T12:04:20.697Z,69.80
2018-02-09T12:06:49.214Z,68.60
2018-02-09T12:09:17.542Z,66.10
2018-02-09T12:11:45.090Z,66.10
2018-02-09T12:14:13.123Z,68.20
2018-02-09T12:16:40.679Z,67.40
2018-02-09T12:19:09.323Z,68.10
2018-02-09T12:21:36.877Z,68.10
2018-02-09T12:24:04.398Z,67.00
2018-02-09T12:26:32.957Z,66.70
2018-02-09T12:29:00.513Z,66.70
2018-02-09T12:31:29.168Z,69.60
2018-02-09T12:33:57.532Z,68.70
2018-02-09T12:36:25.106Z,68.70
2018-02-09T12:38:52.630Z,69.20
2018-02-09T12:41:20.155Z,69.10
2018-02-09T12:43:47.698Z,70.10
2018-02-09T12:46:16.178Z,69.10
2018-02-09T12:48:43.776Z,70.00
2018-02-09T12:51:12.047Z,66.30
2018-02-09T12:53:39.579Z,66.40
2018-02-09T12:56:07.154Z,67.10
2018-02-09T12:58:34.702Z,67.30
2018-02-09T13:01:02.256Z,66.30
2018-02-09T13:03:29.790Z,65.30
2018-02-09T13:05:57.325Z,65.70
2018-02-09T13:08:24.881Z,63.30
2018-02-09T13:10:52.451Z,61.60
2018-02-09T13:13:20.003Z,63.10
2018-02-09T13:15:47.543Z,63.80
2018-02-09T13:18:30.105Z,62.50
2018-02-09T13:20:57.697Z,62.50
2018-02-09T13:23:37.150Z,60.00
2018-02-09T13:26:04.693Z,61.50
2018-02-09T13:28:44.878Z,61.00
2018-02-09T13:31:12.455Z,61.00
2018-02-09T13:33:39.989Z,61.80
2018-02-09T13:36:07.690Z,64.30
2018-02-09T13:38:35.234Z,64.20
2018-02-09T13:41:02.780Z,63.60
2018-02-09T13:43:30.380Z,62.90
2018-02-09T13:45:57.919Z,62.70
2018-02-09T13:48:25.485Z,62.60
2018-02-09T13:50:53.038Z,62.30
2018-02-09T13:53:20.635Z,63.60
2018-02-09T13:55:48.217Z,65.70
2018-02-09T13:58:15.850Z,64.00
2018-02-09T14:00:43.379Z,65.30
2018-02-09T14:03:10.993Z,66.40
2018-02-09T14:05:38.498Z,66.60
2018-02-09T14:08:06.094Z,65.60
2018-02-09T14:10:33.652Z,66.00
2018-02-09T14:13:01.194Z,66.10
2018-02-09T14:15:28.764Z,64.60
2018-02-09T14:17:56.310Z,63.20
2018-02-09T14:20:23.870Z,61.90
2018-02-09T14:22:51.398Z,61.40
2018-02-09T14:25:18.932Z,61.00
2018-02-09T14:27:46.492Z,62.50
2018-02-09T14:30:14.015Z,62.10
2018-02-09T14:32:41.566Z,63.40
2018-02-09T14:35:09.101Z,63.30
2018-02-09T14:37:36.621Z,64.20
2018-02-09T14:40:06.876Z,63.00
2018-02-09T14:42:34.399Z,63.00
2018-02-09T14:45:02.120Z,61.80
2018-02-09T14:47:29.643Z,58.80
2018-02-09T14:49:57.164Z,59.50
2018-02-09T14:52:24.729Z,59.20
2018-02-09T14:54:52.254Z,59.40
2018-02-09T14:57:19.809Z,59.10
2018-02-09T14:59:47.334Z,58.60
2018-02-09T15:02:14.881Z,58.20
2018-02-09T15:04:42.430Z,58.30
2018-02-09T15:07:11.665Z,58.90
2018-02-09T15:09:39.225Z,58.80
2018-02-09T15:12:06.761Z,58.40
2018-02-09T15:14:34.279Z,58.70
2018-02-09T15:17:01.851Z,59.80
2018-02-09T15:19:29.372Z,60.20
2018-02-09T15:21:56.925Z,60.00
2018-02-09T15:24:24.738Z,61.90
2018-02-09T15:26:53.051Z,63.00
2018-02-09T15:29:20.608Z,63.00
2018-02-09T15:31:48.127Z,63.80
2018-02-09T15:34:15.677Z,64.30
2018-02-09T15:36:43.200Z,63.30
2018-02-09T15:39:10.731Z,64.50
2018-02-09T15:41:38.289Z,65.00
2018-02-09T15:44:05.821Z,64.60
2018-02-09T15:46:34.143Z,67.30
2018-02-09T15:49:01.683Z,67.30
2018-02-09T15:51:29.250Z,66.90
2018-02-09T15:53:56.808Z,67.40
2018-02-09T15:56:25.002Z,66.90
2018-02-09T15:58:52.648Z,65.60
2018-02-09T16:01:21.389Z,66.00
2018-02-09T16:03:48.909Z,65.20
2018-02-09T16:06:16.453Z,65.50
2018-02-09T16:08:44.043Z,67.20
2018-02-09T16:11:12.463Z,67.60
2018-02-09T16:13:42.456Z,67.80
2018-02-09T16:16:09.976Z,68.20
2018-02-09T16:18:37.545Z,69.80
2018-02-09T16:21:05.090Z,69.60
2018-02-09T16:23:32.651Z,69.40
2018-02-09T16:26:00.195Z,70.00
2018-02-09T16:28:27.722Z,70.00
2018-02-09T16:30:56.043Z,68.30
2018-02-09T16:33:23.569Z,68.30
2018-02-09T16:35:51.114Z,68.10
2018-02-09T16:38:18.634Z,68.70
2018-02-09T16:40:46.166Z,69.30
2018-02-09T16:43:13.719Z,69.10
2018-02-09T16:45:41.254Z,69.40
2018-02-09T16:48:11.548Z,69.00
2018-02-09T16:50:39.074Z,68.90
2018-02-09T16:53:06.590Z,69.70
2018-02-09T16:55:34.942Z,70.50
2018-02-09T16:58:02.484Z,71.10
2018-02-09T17:00:30.039Z,70.70
2018-02-09T17:02:58.510Z,70.80
2018-02-09T17:05:27.008Z,71.20
2018-02-09T17:07:54.596Z,71.40
2018-02-09T17:10:22.130Z,71.20
2018-02-09T17:12:49.738Z,71.30
2018-02-09T17:15:17.289Z,72.40
2018-02-09T17:17:44.811Z,72.00
2018-02-09T17:20:12.370Z,72.10
2018-02-09T17:22:39.942Z,71.80
2018-02-09T17:25:07.802Z,71.90
2018-02-09T17:27:35.342Z,71.70
2018-02-09T17:30:02.871Z,72.90
2018-02-09T17:32:30.447Z,72.10
2018-02-09T17:34:57.972Z,72.80
2018-02-09T17:37:26.316Z,70.80
2018-02-09T17:39:53.839Z,70.70
2018-02-09T17:42:21.410Z,68.90
2018-02-09T17:44:48.933Z,67.80
2018-02-09T17:47:16.465Z,67.80
2018-02-09T17:49:44.835Z,65.80
2018-02-09T17:52:12.363Z,65.70
2018-02-09T17:54:41.865Z,65.30
2018-02-09T17:57:10.352Z,64.60
2018-02-09T17:59:37.882Z,65.50
2018-02-09T18:02:05.450Z,64.40
2018-02-09T18:04:38.877Z,64.80
2018-02-09T18:07:06.443Z,64.50
2018-02-09T18:09:33.975Z,65.90
2018-02-09T18:12:01.497Z,65.50
2018-02-09T18:14:29.059Z,66.00
2018-02-09T18:16:56.586Z,65.60
2018-02-09T18:19:24.138Z,65.80
2018-02-09T18:21:51.666Z,64.40
2018-02-09T18:24:19.185Z,65.00
2018-02-09T18:26:48.710Z,63.90
2018-02-09T18:29:16.253Z,63.90
2018-02-09T18:31:43.815Z,64.50
2018-02-09T18:34:11.345Z,64.20
2018-02-09T18:36:38.926Z,62.40
2018-02-09T18:39:06.525Z,62.20
2018-02-09T18:41:34.978Z,61.90
2018-02-09T18:44:02.542Z,63.00
2018-02-09T18:46:30.061Z,62.60
2018-02-09T18:48:57.579Z,62.10
2018-02-09T18:51:25.151Z,62.10
2018-02-09T18:53:52.709Z,61.50
2018-02-09T18:56:20.234Z,61.60
2018-02-09T18:58:47.804Z,61.60
2018-02-09T19:01:15.384Z,62.00
2018-02-09T19:03:42.918Z,61.90
2018-02-09T19:06:10.548Z,61.50
2018-02-09T19:08:38.858Z,60.80
2018-02-09T19:11:06.392Z,60.80
2018-02-09T19:13:33.947Z,61.00
2018-02-09T19:16:02.276Z,62.00
2018-02-09T19:18:29.857Z,62.00
2018-02-09T19:20:57.446Z,61.80
2018-02-09T19:23:24.971Z,61.20
2018-02-09T19:25:52.559Z,61.20
2018-02-09T19:28:20.857Z,60.50
2018-02-09T19:30:48.418Z,60.50
2018-02-09T19:33:16.910Z,61.10
2018-02-09T19:35:44.441Z,60.90
2018-02-09T19:38:12.002Z,61.40
2018-02-09T19:40:39.522Z,60.40
2018-02-09T19:43:07.069Z,61.50
2018-02-09T19:45:34.613Z,61.70
2018-02-09T19:48:02.149Z,63.30
2018-02-09T19:50:29.693Z,63.10
2018-02-09T19:52:57.221Z,62.00
2018-02-09T19:55:24.790Z,62.80
2018-02-09T19:57:53.090Z,63.10
2018-02-09T20:00:20.613Z,63.10
2018-02-09T20:02:48.154Z,61.70
2018-02-09T20:05:15.682Z,63.10
2018-02-09T20:07:43.234Z,63.90
2018-02-09T20:10:10.762Z,64.50
2018-02-09T20:12:39.091Z,65.00
2018-02-09T20:15:07.709Z,65.00
2018-02-09T20:17:35.230Z,65.60
2018-02-09T20:20:02.779Z,64.30
2018-02-09T20:22:31.353Z,63.90
2018-02-09T20:24:59.657Z,64.20
2018-02-09T20:27:27.176Z,64.20
2018-02-09T20:29:54.698Z,64.70
2018-02-09T20:32:22.245Z,64.80
2018-02-09T20:34:49.766Z,64.10
2018-02-09T20:37:17.316Z,63.90
2018-02-09T20:39:44.850Z,64.70
2018-02-09T20:42:12.373Z,64.70
2018-02-09T20:44:39.928Z,64.40
2018-02-09T20:47:07.459Z,65.20
2018-02-09T20:49:35.088Z,66.60
2018-02-09T20:52:02.721Z,66.50
2018-02-09T20:54:30.242Z,65.80
2018-02-09T20:56:57.853Z,66.90
2018-02-09T20:59:26.222Z,64.70
2018-02-09T21:01:53.787Z,64.70
2018-02-09T21:04:21.318Z,65.90
2018-02-09T21:06:48.848Z,65.20
2018-02-09T21:09:16.403Z,63.30
2018-02-09T21:11:43.925Z,62.00
2018-02-09T21:14:11.487Z,61.00
2018-02-09T21:16:39.790Z,61.30
2018-02-09T21:19:07.340Z,61.30
2018-02-09T21:21:34.892Z,62.40
2018-02-09T21:24:02.422Z,62.10
2018-02-09T21:26:29.980Z,62.60
2018-02-09T21:28:57.503Z,61.90
2018-02-09T21:31:25.023Z,61.20
2018-02-09T21:33:53.339Z,61.70
2018-02-09T21:36:20.877Z,61.50
2018-02-09T21:38:50.361Z,62.00
2018-02-09T21:41:17.891Z,61.70
2018-02-09T21:43:45.411Z,60.70
2018-02-09T21:46:12.960Z,60.90
2018-02-09T21:48:40.502Z,60.20
2018-02-09T21:51:08.823Z,60.50
2018-02-09T21:53:36.351Z,60.40
2018-02-09T21:56:03.877Z,61.30
2018-02-09T21:58:32.200Z,64.90
2018-02-09T22:00:59.724Z,64.60
2018-02-09T22:03:29.976Z,64.00
2018-02-09T22:05:57.494Z,64.00
2018-02-09T22:08:25.038Z,62.50
2018-02-09T22:10:52.594Z,62.90
2018-02-09T22:13:20.118Z,62.90
2018-02-09T22:15:47.697Z,63.90
2018-02-09T22:18:15.219Z,63.50
2018-02-09T22:20:42.738Z,63.90
2018-02-09T22:23:10.290Z,65.20
2018-02-09T22:25:37.814Z,67.10
2018-02-09T22:28:05.361Z,68.70
2018-02-09T22:30:33.833Z,70.10
2018-02-09T22:33:01.374Z,71.80
2018-02-09T22:35:28.922Z,73.00
2018-02-09T22:37:56.467Z,72.70
2018-02-09T22:40:24.022Z,72.00
2018-02-09T22:42:52.518Z,72.30
2018-02-09T22:45:20.068Z,71.80
2018-02-09T22:47:47.614Z,71.80
2018-02-09T22:50:16.154Z,71.20
2018-02-09T22:52:43.707Z,72.30
2018-02-09T22:55:11.272Z,71.00
2018-02-09T22:57:38.792Z,71.60
2018-02-09T23:00:06.346Z,71.40
2018-02-09T23:02:34.653Z,70.40
2018-02-09T23:05:03.933Z,70.60
2018-02-09T23:07:31.455Z,70.50
2018-02-09T23:09:59.019Z,70.70
2018-02-09T23:12:26.561Z,70.80
2018-02-09T23:14:54.084Z,70.90
2018-02-09T23:17:21.632Z,70.50
2018-02-09T23:19:49.921Z,70.50
2018-02-09T23:22:18.218Z,70.50
2018-02-09T23:24:45.773Z,70.50
2018-02-09T23:27:13.322Z,71.60
2018-02-09T23:29:40.919Z,71.50
2018-02-09T23:32:08.455Z,71.90
2018-02-09T23:34:35.975Z,71.40
2018-02-09T23:37:03.542Z,71.50
2018-02-09T23:39:31.822Z,71.00
2018-02-09T23:42:00.281Z,71.00
2018-02-09T23:44:27.810Z,70.90
2018-02-09T23:46:55.338Z,71.00
2018-02-09T23:49:24.850Z,71.50
2018-02-09T23:51:52.394Z,71.40
2018-02-09T23:54:19.959Z,71.60
2018-02-09T23:56:47.486Z,71.50
2018-02-09T23:59:15.828Z,71.50
